KHDC

Hammond Northshore Regional Airport

Hammond, Louisiana, USA
METAR KHDC 240155Z AUTO 00000KT 10SM CLR 23/22 A3004 RMK AO2
Observed Flight Rules
May-24 @ 01:55 UTC (11 minutes ago) Visual Flight Rules
Visibility Clouds
10 miles
  • Clear skies
Temperatures Readings
Current 23°C / 73°F
Dewpoint 22°C / 72°F
Humidity 94%
Altimeter 30.04" Hg
Pressure 1017 hPa
Elevation 13
METAR KHDC 240155Z AUTO 00000KT 10SM CLR 23/22 A3004 RMK AO2
Observed Flight Rules
May-24 @ 01:55 UTC
(11 minutes ago)
VFR
Clouds
  • Clear skies
Temperature Dewpoint
23°C / 73°F 22°C / 72°F
Humidity Altimeter Pressure
94% 30.04" Hg 1017 hPa